Time;durP1;ratioP1;P1;durP2;ratioP2;P2;SDS_P1;SDS_P2;PMS_P1;PMS_P2;Temp;Humidity;BMP_temperature;BMP_pressure;BME280_temperature;BME280_humidity;BME280_pressure;Samples;Min_cycle;Max_cycle;Signal;HPM_P1;HPM_P2
2022/05/13 00:01:17;;;;;;;1.42;1.32;;;18.50;52.20;;;;;;933971;150;27457;-73
2022/05/13 00:03:43;;;;;;;1.20;1.10;;;18.40;52.30;;;;;;940107;150;27503;-72
2022/05/13 00:06:10;;;;;;;2.85;1.50;;;18.40;52.40;;;;;;939848;150;27400;-74
2022/05/13 00:08:36;;;;;;;1.35;1.25;;;18.30;52.50;;;;;;939698;150;27424;-73
2022/05/13 00:11:03;;;;;;;1.07;1.02;;;18.20;52.50;;;;;;939647;150;27310;-73
2022/05/13 00:13:30;;;;;;;1.50;1.40;;;18.10;52.60;;;;;;939508;150;27453;-74
2022/05/13 00:15:56;;;;;;;1.40;1.30;;;18.10;52.60;;;;;;940354;150;27474;-73
2022/05/13 00:18:23;;;;;;;1.70;1.42;;;18.00;52.80;;;;;;940656;150;27336;-72
2022/05/13 00:20:49;;;;;;;3.60;1.40;;;18.00;53.00;;;;;;940437;150;27976;-73
2022/05/13 00:23:16;;;;;;;1.70;1.50;;;17.90;53.30;;;;;;938899;149;27486;-72
2022/05/13 00:25:43;;;;;;;1.43;1.10;;;17.80;53.40;;;;;;941179;150;27892;-73
2022/05/13 00:28:09;;;;;;;1.55;1.45;;;17.80;53.70;;;;;;939470;150;27444;-73
2022/05/13 00:30:36;;;;;;;1.17;0.90;;;17.70;53.80;;;;;;940722;150;27320;-73
2022/05/13 00:33:02;;;;;;;2.47;1.40;;;17.60;53.90;;;;;;938975;150;27427;-73
2022/05/13 00:35:29;;;;;;;1.80;1.27;;;17.60;54.10;;;;;;940100;150;27372;-73
2022/05/13 00:37:56;;;;;;;2.80;1.50;;;17.50;54.30;;;;;;940037;150;27459;-73
2022/05/13 00:40:22;;;;;;;1.80;1.30;;;17.40;54.30;;;;;;940443;150;27350;-73
2022/05/13 00:42:49;;;;;;;2.13;1.90;;;17.40;54.60;;;;;;940874;150;27362;-72
2022/05/13 00:45:15;;;;;;;2.10;1.57;;;17.30;54.80;;;;;;941594;149;27370;-73
2022/05/13 00:47:42;;;;;;;1.77;1.60;;;17.20;55.00;;;;;;942695;149;28387;-73
2022/05/13 00:50:09;;;;;;;1.70;1.30;;;17.20;55.20;;;;;;943521;149;27307;-72
2022/05/13 00:52:36;;;;;;;1.40;1.30;;;17.10;55.30;;;;;;942761;149;27308;-73
2022/05/13 00:55:02;;;;;;;2.83;1.77;;;17.00;55.40;;;;;;942176;148;27362;-73
2022/05/13 00:57:29;;;;;;;1.43;1.33;;;16.90;55.60;;;;;;941984;149;27329;-72
2022/05/13 00:59:55;;;;;;;1.47;1.33;;;16.80;55.70;;;;;;942697;149;27351;-72
2022/05/13 01:02:22;;;;;;;2.07;1.47;;;16.80;55.20;;;;;;943980;149;27388;-73
2022/05/13 01:04:48;;;;;;;2.27;1.43;;;16.70;56.00;;;;;;942243;149;27369;-73
2022/05/13 01:07:17;;;;;;;2.63;1.40;;;16.60;56.70;;;;;;943220;149;27366;-72
2022/05/13 01:09:50;;;;;;;1.30;1.00;;;16.50;56.30;;;;;;942446;149;27431;-73
2022/05/13 01:12:16;;;;;;;1.20;1.10;;;16.50;56.30;;;;;;943050;149;27407;-72
2022/05/13 01:14:46;;;;;;;1.43;1.33;;;16.40;56.40;;;;;;943041;149;27321;-73
2022/05/13 01:20:09;;;;;;;2.13;1.57;;;16.30;56.70;;;;;;942685;149;27434;-73
2022/05/13 01:22:43;;;;;;;1.63;1.53;;;16.20;56.60;;;;;;942598;149;27458;-73
2022/05/13 01:25:08;;;;;;;3.47;1.30;;;16.10;56.90;;;;;;942781;148;27661;-72
2022/05/13 01:27:35;;;;;;;2.47;1.60;;;16.00;57.00;;;;;;942449;149;27357;-73
2022/05/13 01:30:01;;;;;;;2.80;1.27;;;16.00;56.90;;;;;;942183;149;27377;-73
2022/05/13 01:32:28;;;;;;;1.73;1.40;;;15.90;57.40;;;;;;942145;149;27380;-72
2022/05/13 01:34:55;;;;;;;1.70;1.60;;;15.80;57.70;;;;;;944200;149;27369;-73
2022/05/13 01:37:21;;;;;;;2.40;1.50;;;15.70;57.80;;;;;;942727;149;27353;-72
2022/05/13 01:39:48;;;;;;;1.50;1.40;;;15.70;58.00;;;;;;942422;149;27307;-72
2022/05/13 01:42:14;;;;;;;2.33;1.47;;;15.60;58.10;;;;;;943360;149;27344;-73
2022/05/13 01:44:41;;;;;;;3.47;1.60;;;15.60;58.20;;;;;;942783;149;27502;-72
2022/05/13 01:47:08;;;;;;;2.27;1.57;;;15.50;58.40;;;;;;943411;149;27482;-72
2022/05/13 01:49:34;;;;;;;4.63;1.70;;;15.40;58.50;;;;;;943345;149;27341;-73
2022/05/13 01:52:01;;;;;;;3.43;1.50;;;15.40;58.60;;;;;;942890;149;27326;-72
2022/05/13 01:54:27;;;;;;;1.70;1.60;;;15.30;58.70;;;;;;942631;149;28077;-73
2022/05/13 01:56:54;;;;;;;1.53;1.43;;;15.20;58.90;;;;;;943400;149;27830;-72
2022/05/13 01:59:20;;;;;;;2.23;1.57;;;15.20;59.00;;;;;;942887;149;27844;-72
2022/05/13 02:01:47;;;;;;;1.80;1.70;;;15.10;59.10;;;;;;942583;149;27314;-72
2022/05/13 02:04:14;;;;;;;1.90;1.80;;;15.00;59.20;;;;;;942835;149;27348;-73
2022/05/13 02:06:40;;;;;;;2.73;1.93;;;14.90;59.30;;;;;;943519;149;27337;-73
2022/05/13 02:09:07;;;;;;;2.30;1.73;;;14.90;59.60;;;;;;943284;149;27420;-73
2022/05/13 02:11:36;;;;;;;1.67;1.50;;;14.80;59.70;;;;;;942674;149;27348;-74
2022/05/13 02:14:00;;;;;;;3.97;1.50;;;14.70;59.90;;;;;;942432;149;27333;-73
2022/05/13 02:16:27;;;;;;;2.80;1.87;;;14.70;60.10;;;;;;942994;149;27422;-73
2022/05/13 02:18:53;;;;;;;1.70;1.60;;;14.60;60.20;;;;;;943251;149;27334;-73
2022/05/13 02:21:20;;;;;;;1.90;1.70;;;14.60;60.30;;;;;;943434;149;27401;-73
2022/05/13 02:23:46;;;;;;;1.63;1.53;;;14.50;60.50;;;;;;943057;149;27360;-73
2022/05/13 02:26:13;;;;;;;4.43;1.80;;;14.50;60.70;;;;;;942676;149;27353;-73
2022/05/13 02:28:40;;;;;;;2.57;1.80;;;14.50;60.80;;;;;;943310;149;27291;-73
2022/05/13 02:31:06;;;;;;;1.73;1.60;;;14.40;61.00;;;;;;942015;149;27331;-73
2022/05/13 02:33:33;;;;;;;2.73;2.10;;;14.40;61.30;;;;;;941167;149;28203;-73
2022/05/13 02:36:02;;;;;;;2.50;1.50;;;14.30;61.40;;;;;;942738;149;27329;-73
2022/05/13 02:38:28;;;;;;;2.13;1.80;;;14.30;61.60;;;;;;926400;152;27431;-73
2022/05/13 02:41:13;;;;;;;2.37;1.80;;;14.30;61.70;;;;;;928030;151;27299;-73
2022/05/13 02:43:39;;;;;;;1.70;1.60;;;14.20;61.00;;;;;;925286;152;27379;-73
2022/05/13 02:46:06;;;;;;;2.10;2.00;;;14.20;61.80;;;;;;933848;148;27317;-74
2022/05/13 02:48:32;;;;;;;1.80;1.70;;;14.10;61.90;;;;;;929194;154;27486;-73
2022/05/13 02:50:59;;;;;;;2.60;1.73;;;14.10;62.10;;;;;;924320;152;27416;-73
2022/05/13 02:53:26;;;;;;;2.33;1.97;;;14.00;62.30;;;;;;948428;148;27402;-73
2022/05/13 02:55:52;;;;;;;3.87;1.90;;;14.00;62.60;;;;;;930023;151;27374;-73
2022/05/13 02:58:19;;;;;;;3.23;1.97;;;14.00;62.70;;;;;;927636;152;27403;-73
2022/05/13 03:00:45;;;;;;;4.10;2.63;;;13.90;62.80;;;;;;935935;151;27449;-73
2022/05/13 03:03:12;;;;;;;2.00;1.83;;;13.80;62.90;;;;;;924987;152;27532;-73
2022/05/13 03:05:39;;;;;;;3.20;1.80;;;13.80;63.10;;;;;;927670;151;27359;-73
2022/05/13 03:08:07;;;;;;;2.30;1.90;;;13.80;63.40;;;;;;948618;148;27321;-73
2022/05/13 03:10:32;;;;;;;2.77;1.83;;;13.70;63.40;;;;;;930344;151;27301;-73
2022/05/13 03:12:58;;;;;;;1.43;1.33;;;13.70;63.60;;;;;;937416;150;27358;-73
2022/05/13 03:15:25;;;;;;;2.73;1.93;;;13.70;63.80;;;;;;935461;151;27389;-73
2022/05/13 03:17:52;;;;;;;2.53;1.93;;;13.70;64.00;;;;;;928562;151;27323;-73
2022/05/13 03:20:18;;;;;;;4.53;1.90;;;13.70;64.30;;;;;;933861;151;27473;-73
2022/05/13 03:22:45;;;;;;;2.57;1.90;;;13.60;64.40;;;;;;930096;151;27302;-73
2022/05/13 03:25:11;;;;;;;2.87;2.07;;;13.70;64.70;;;;;;926270;152;27368;-73
2022/05/13 03:27:38;;;;;;;3.87;1.90;;;13.70;65.70;;;;;;927557;152;27335;-73
2022/05/13 03:30:05;;;;;;;2.47;2.00;;;13.70;65.00;;;;;;928283;152;28262;-73
2022/05/13 03:32:31;;;;;;;2.20;1.80;;;13.80;65.20;;;;;;935956;151;27366;-73
2022/05/13 03:34:58;;;;;;;2.00;1.90;;;13.90;65.30;;;;;;925876;152;27384;-73
2022/05/13 03:37:25;;;;;;;3.33;1.90;;;13.90;65.20;;;;;;928614;152;27510;-73
2022/05/13 03:39:51;;;;;;;2.27;2.00;;;13.90;65.20;;;;;;929145;151;27852;-73
2022/05/13 03:42:20;;;;;;;2.33;1.73;;;14.00;65.20;;;;;;928060;152;27478;-73
2022/05/13 03:44:44;;;;;;;2.03;1.80;;;14.10;65.10;;;;;;951497;148;27329;-73
2022/05/13 03:47:11;;;;;;;2.33;2.13;;;14.10;65.00;;;;;;934649;150;27863;-73
2022/05/13 03:49:37;;;;;;;2.90;1.97;;;14.10;65.40;;;;;;936187;150;27817;-73
2022/05/13 03:52:04;;;;;;;2.07;1.97;;;14.10;64.90;;;;;;937100;150;27343;-73
2022/05/13 03:54:31;;;;;;;2.33;2.13;;;14.00;64.90;;;;;;937057;150;27502;-73
2022/05/13 03:56:57;;;;;;;2.63;2.10;;;14.00;65.00;;;;;;936353;150;27325;-73
2022/05/13 03:59:24;;;;;;;2.50;2.00;;;14.00;65.20;;;;;;936828;150;27317;-73
2022/05/13 04:01:50;;;;;;;2.10;1.90;;;14.00;65.40;;;;;;936307;150;27470;-73
2022/05/13 04:04:21;;;;;;;3.40;2.30;;;14.00;65.50;;;;;;936350;150;27422;-73
2022/05/13 04:09:28;;;;;;;2.33;2.13;;;14.00;65.80;;;;;;936327;150;27524;-73
2022/05/13 04:17:24;;;;;;;2.03;1.90;;;14.10;66.00;;;;;;935896;150;27327;-73
2022/05/13 04:19:51;;;;;;;3.00;2.13;;;14.10;66.00;;;;;;936081;150;27380;-73
2022/05/13 04:22:17;;;;;;;2.63;2.17;;;14.00;66.10;;;;;;936882;150;27348;-73
2022/05/13 04:24:44;;;;;;;2.90;2.10;;;14.10;66.30;;;;;;936467;150;27472;-73
2022/05/13 04:27:11;;;;;;;2.80;2.30;;;14.10;66.50;;;;;;937413;150;27781;-73
2022/05/13 04:29:37;;;;;;;2.40;2.20;;;14.10;66.60;;;;;;936914;150;27460;-73
2022/05/13 04:32:04;;;;;;;5.30;2.10;;;14.10;66.60;;;;;;937266;150;27633;-73
2022/05/13 04:34:30;;;;;;;2.37;2.20;;;14.10;66.70;;;;;;935915;150;27436;-73
2022/05/13 04:36:57;;;;;;;2.30;2.10;;;14.20;66.70;;;;;;937090;150;27368;-73
2022/05/13 04:39:24;;;;;;;2.30;2.10;;;14.10;66.70;;;;;;935872;150;27464;-73
2022/05/13 04:44:35;;;;;;;2.00;1.73;;;14.30;67.00;;;;;;936934;150;27457;-73
2022/05/13 04:47:02;;;;;;;2.70;2.43;;;14.30;66.90;;;;;;939327;149;27486;-73
2022/05/13 04:49:28;;;;;;;2.23;1.97;;;14.40;67.10;;;;;;933754;150;27369;-73
2022/05/13 04:51:55;;;;;;;2.60;2.40;;;14.40;67.20;;;;;;948043;147;27342;-73
2022/05/13 04:54:21;;;;;;;2.40;2.20;;;14.50;67.40;;;;;;949480;146;27365;-73
2022/05/13 04:56:48;;;;;;;2.50;2.30;;;14.60;67.80;;;;;;949184;148;27744;-73
2022/05/13 04:59:15;;;;;;;2.50;2.30;;;14.90;68.30;;;;;;947464;148;27365;-73
2022/05/13 05:01:41;;;;;;;2.73;2.33;;;15.20;69.10;;;;;;948425;148;27398;-73
2022/05/13 05:04:08;;;;;;;2.20;2.00;;;15.60;69.60;;;;;;948145;148;27413;-73
2022/05/13 05:06:36;;;;;;;2.67;2.10;;;16.10;70.10;;;;;;947665;148;28037;-73
2022/05/13 05:09:01;;;;;;;2.33;1.85;;;16.70;70.20;;;;;;947637;148;27333;-73
2022/05/13 05:11:27;;;;;;;2.92;2.02;;;17.40;70.10;;;;;;947827;148;27301;-73
2022/05/13 05:13:54;;;;;;;2.17;1.75;;;18.10;69.50;;;;;;948943;148;27321;-73
2022/05/13 05:16:22;;;;;;;13.93;2.45;;;18.90;67.90;;;;;;948407;148;27368;-73
2022/05/13 05:18:47;;;;;;;4.72;1.87;;;19.60;66.00;;;;;;947575;148;27850;-73
2022/05/13 05:21:14;;;;;;;1.72;1.60;;;20.10;63.90;;;;;;947893;148;27328;-74
2022/05/13 05:23:40;;;;;;;3.85;2.20;;;20.50;61.90;;;;;;946935;148;28196;-74
2022/05/13 05:26:07;;;;;;;2.12;1.75;;;20.80;60.40;;;;;;947840;148;27345;-74
2022/05/13 05:28:34;;;;;;;1.95;1.82;;;21.00;59.50;;;;;;947043;148;27467;-74
2022/05/13 05:31:00;;;;;;;3.05;2.25;;;21.10;58.80;;;;;;947793;148;27372;-74
2022/05/13 05:33:27;;;;;;;3.47;2.67;;;21.10;58.40;;;;;;948082;148;27344;-74
2022/05/13 05:35:53;;;;;;;2.45;1.80;;;21.10;58.10;;;;;;947340;148;27339;-74
2022/05/13 05:38:20;;;;;;;4.30;2.20;;;21.00;57.90;;;;;;947457;148;27314;-74
2022/05/13 05:40:47;;;;;;;2.12;1.50;;;21.00;57.80;;;;;;947882;148;27346;-74
2022/05/13 05:43:13;;;;;;;2.35;2.05;;;21.00;57.70;;;;;;947267;148;27365;-74
2022/05/13 05:45:40;;;;;;;2.62;2.02;;;20.90;57.70;;;;;;946526;148;27445;-74
2022/05/13 05:48:06;;;;;;;2.90;2.00;;;21.00;57.90;;;;;;942673;148;27391;-74
2022/05/13 05:50:33;;;;;;;3.00;2.33;;;21.00;58.10;;;;;;938804;150;27447;-74
2022/05/13 05:53:01;;;;;;;2.30;1.90;;;21.20;58.40;;;;;;939607;150;27319;-74
2022/05/13 05:58:11;;;;;;;3.90;2.00;;;21.80;58.80;;;;;;939279;150;27394;-74
2022/05/13 06:00:37;;;;;;;1.77;1.67;;;22.30;59.60;;;;;;939345;150;27380;-74
2022/05/13 06:03:04;;;;;;;2.42;1.92;;;22.90;59.10;;;;;;937034;150;27378;-74
2022/05/13 06:05:30;;;;;;;2.22;2.00;;;23.50;58.60;;;;;;939253;150;27256;-74
2022/05/13 06:08:00;;;;;;;4.47;1.70;;;24.00;57.30;;;;;;938544;150;27339;-74
2022/05/13 06:10:24;;;;;;;2.33;1.72;;;24.50;56.20;;;;;;937117;150;27346;-74
2022/05/13 06:12:50;;;;;;;1.87;1.57;;;24.80;55.10;;;;;;939414;150;27264;-74
2022/05/13 06:15:17;;;;;;;2.72;1.87;;;25.00;54.20;;;;;;940266;150;27425;-74
2022/05/13 06:17:49;;;;;;;1.70;1.60;;;25.10;53.40;;;;;;940100;150;27423;-74
2022/05/13 06:20:16;;;;;;;1.52;1.42;;;25.10;52.90;;;;;;939842;150;28101;-74
2022/05/13 06:22:42;;;;;;;2.47;1.67;;;25.10;52.40;;;;;;940062;150;27379;-73
2022/05/13 06:25:09;;;;;;;2.67;1.45;;;25.00;52.00;;;;;;924479;152;27332;-73
2022/05/13 06:27:36;;;;;;;2.92;1.50;;;24.90;52.10;;;;;;926238;152;27333;-73
2022/05/13 06:30:02;;;;;;;2.35;1.50;;;25.00;52.50;;;;;;926395;152;27285;-74
2022/05/13 06:32:29;;;;;;;2.27;1.55;;;25.20;53.00;;;;;;932370;151;28701;-74
2022/05/13 06:34:55;;;;;;;2.37;1.47;;;25.60;53.30;;;;;;945679;149;27389;-74
2022/05/13 06:37:22;;;;;;;1.67;1.57;;;26.10;53.50;;;;;;923134;152;27921;-74
2022/05/13 06:39:48;;;;;;;2.37;1.30;;;26.70;53.40;;;;;;923086;153;27397;-74
2022/05/13 06:42:16;;;;;;;1.35;1.12;;;27.40;53.00;;;;;;923230;153;27313;-74
2022/05/13 06:44:42;;;;;;;1.70;1.50;;;28.20;52.30;;;;;;945526;149;27287;-74
2022/05/13 06:47:09;;;;;;;2.85;1.42;;;29.00;51.70;;;;;;928833;152;27432;-74
2022/05/13 06:49:35;;;;;;;1.37;1.15;;;29.70;51.00;;;;;;927436;151;27929;-74
2022/05/13 06:52:03;;;;;;;2.15;1.52;;;30.60;50.10;;;;;;948240;148;27449;-74
2022/05/13 06:54:28;;;;;;;1.72;1.37;;;31.40;49.00;;;;;;949015;148;27316;-74
2022/05/13 06:56:55;;;;;;;2.02;1.42;;;32.10;47.60;;;;;;949778;148;27323;-74
2022/05/13 06:59:21;;;;;;;1.40;1.30;;;32.70;46.60;;;;;;949176;148;27332;-74
2022/05/13 07:01:48;;;;;;;1.95;1.22;;;33.20;45.40;;;;;;949195;148;27423;-74
2022/05/13 07:04:14;;;;;;;2.05;1.20;;;33.50;44.10;;;;;;949384;148;27373;-74
2022/05/13 07:06:41;;;;;;;2.10;1.62;;;33.70;43.10;;;;;;949971;148;27289;-74
2022/05/13 07:09:08;;;;;;;12.10;1.90;;;33.70;42.00;;;;;;949786;148;27679;-74
2022/05/13 07:11:34;;;;;;;2.15;1.30;;;33.60;41.40;;;;;;949099;148;27400;-74
2022/05/13 07:14:01;;;;;;;2.42;1.30;;;33.40;41.00;;;;;;947736;148;27335;-74
2022/05/13 07:16:27;;;;;;;2.65;1.25;;;33.10;40.50;;;;;;929247;151;28068;-74
2022/05/13 07:18:54;;;;;;;3.58;1.52;;;32.90;40.60;;;;;;944870;150;27687;-74
2022/05/13 07:21:21;;;;;;;2.87;1.70;;;32.70;40.80;;;;;;946813;148;27362;-74
2022/05/13 07:23:47;;;;;;;1.65;1.45;;;32.70;41.40;;;;;;928594;152;27302;-74
2022/05/13 07:26:14;;;;;;;2.87;1.40;;;32.90;41.90;;;;;;929314;152;27371;-74
2022/05/13 07:28:40;;;;;;;2.33;1.20;;;33.30;41.90;;;;;;928264;152;27429;-74
2022/05/13 07:31:07;;;;;;;3.08;1.27;;;33.70;41.70;;;;;;928643;152;26229;-74
2022/05/13 07:33:34;;;;;;;2.55;1.57;;;34.20;41.20;;;;;;935969;151;27403;-75
2022/05/13 07:36:00;;;;;;;1.95;0.95;;;34.90;40.90;;;;;;926142;152;26379;-75
2022/05/13 07:38:29;;;;;;;1.42;1.17;;;35.50;40.20;;;;;;931469;151;26269;-75
2022/05/13 07:43:38;;;;;;;2.80;1.10;;;36.60;38.30;;;;;;936777;151;26368;-75
2022/05/13 07:46:06;;;;;;;3.58;1.10;;;37.20;37.70;;;;;;931818;151;26321;-75
2022/05/13 07:48:31;;;;;;;3.08;0.95;;;37.70;37.00;;;;;;933966;149;26259;-75
2022/05/13 07:50:58;;;;;;;1.57;1.07;;;38.10;36.30;;;;;;949065;148;26237;-75
2022/05/13 07:53:25;;;;;;;1.15;0.80;;;38.40;35.30;;;;;;948858;148;27350;-75
2022/05/13 07:55:51;;;;;;;3.50;1.07;;;38.80;34.80;;;;;;948179;148;26264;-75
2022/05/13 07:58:18;;;;;;;1.95;0.82;;;39.00;35.20;;;;;;949042;148;26243;-75
2022/05/13 08:00:44;;;;;;;1.67;0.90;;;39.40;34.20;;;;;;948464;148;26232;-75
2022/05/13 08:03:11;;;;;;;3.27;1.30;;;39.70;33.50;;;;;;948670;148;26276;-75
2022/05/13 08:05:42;;;;;;;1.40;0.82;;;39.90;32.90;;;;;;945969;148;26724;-75
2022/05/13 08:08:16;;;;;;;1.37;0.90;;;40.20;32.30;;;;;;947066;148;26375;-75
2022/05/13 08:10:52;;;;;;;2.65;1.35;;;40.30;32.10;;;;;;948910;148;26264;-75
2022/05/13 08:13:18;;;;;;;2.90;1.42;;;40.50;31.70;;;;;;947092;148;26263;-75
2022/05/13 08:15:45;;;;;;;0.98;0.82;;;40.50;30.70;;;;;;946787;148;26361;-75
2022/05/13 08:18:11;;;;;;;3.70;1.07;;;40.50;30.10;;;;;;948487;148;26709;-75
2022/05/13 08:20:38;;;;;;;1.37;1.00;;;40.30;29.90;;;;;;947045;148;26284;-75
2022/05/13 08:23:04;;;;;;;1.55;0.90;;;40.00;29.60;;;;;;948327;148;28429;-75
2022/05/13 08:25:31;;;;;;;2.65;0.95;;;39.70;29.40;;;;;;948161;148;26212;-75
2022/05/13 08:27:57;;;;;;;3.62;1.25;;;39.50;29.20;;;;;;948372;148;27359;-75
2022/05/13 08:30:24;;;;;;;3.52;1.27;;;39.10;29.40;;;;;;947550;148;26273;-75
2022/05/13 08:32:51;;;;;;;4.85;1.12;;;38.90;29.60;;;;;;946869;148;26311;-75
2022/05/13 08:35:17;;;;;;;1.42;0.93;;;38.70;29.40;;;;;;947702;148;26288;-74
2022/05/13 08:37:50;;;;;;;2.00;0.80;;;38.40;29.30;;;;;;949535;148;26256;-74
2022/05/13 08:40:35;;;;;;;2.75;1.30;;;38.20;29.10;;;;;;946468;148;26174;-75
2022/05/13 08:43:02;;;;;;;2.60;1.10;;;37.70;29.00;;;;;;948961;148;26330;-75
2022/05/13 08:45:28;;;;;;;5.45;1.35;;;37.30;29.20;;;;;;946905;148;27430;-74
2022/05/13 08:47:55;;;;;;;1.90;1.07;;;36.90;29.10;;;;;;947864;148;26275;-74
2022/05/13 08:50:21;;;;;;;1.45;0.90;;;36.60;29.10;;;;;;934788;148;27481;-75
2022/05/13 08:53:16;;;;;;;2.67;1.20;;;36.30;29.30;;;;;;926692;150;26271;-75
2022/05/13 08:55:42;;;;;;;4.62;1.27;;;36.10;29.80;;;;;;925674;150;26272;-75
2022/05/13 08:58:15;;;;;;;1.50;1.05;;;36.10;30.00;;;;;;925646;150;26373;-75
2022/05/13 09:00:41;;;;;;;3.40;1.60;;;36.20;30.00;;;;;;925799;150;26208;-75
2022/05/13 09:03:14;;;;;;;2.62;0.93;;;36.40;30.00;;;;;;926650;150;26383;-75
2022/05/13 09:05:46;;;;;;;3.65;0.93;;;36.70;30.00;;;;;;926140;150;26272;-75
2022/05/13 09:08:12;;;;;;;3.20;1.25;;;37.00;29.60;;;;;;916410;150;26349;-75
2022/05/13 09:10:39;;;;;;;1.80;1.07;;;37.30;29.60;;;;;;927840;150;26225;-75
2022/05/13 09:13:08;;;;;;;1.98;0.90;;;37.60;29.20;;;;;;925254;150;26338;-75
2022/05/13 09:15:37;;;;;;;1.47;0.60;;;37.80;29.30;;;;;;927040;150;27438;-75
2022/05/13 09:18:06;;;;;;;2.95;1.02;;;38.00;28.50;;;;;;925443;150;26337;-75
2022/05/13 09:20:48;;;;;;;1.17;0.90;;;38.20;27.70;;;;;;926306;150;26307;-75
2022/05/13 09:23:15;;;;;;;1.77;0.85;;;38.30;27.80;;;;;;926839;150;27339;-75
2022/05/13 09:26:10;;;;;;;1.98;1.30;;;38.30;27.10;;;;;;927433;150;27440;-75
2022/05/13 09:28:36;;;;;;;2.10;0.68;;;38.20;27.00;;;;;;926343;150;26340;-75
2022/05/13 09:31:20;;;;;;;0.60;0.60;;;38.00;27.00;;;;;;925606;150;26195;-75
2022/05/13 09:33:47;;;;;;;3.00;1.10;;;37.90;27.10;;;;;;927133;150;26277;-75
2022/05/13 09:36:21;;;;;;;1.30;0.98;;;37.80;26.30;;;;;;927104;150;26643;-75
2022/05/13 09:38:46;;;;;;;2.47;1.02;;;37.70;26.30;;;;;;926226;150;27452;-75
2022/05/13 09:41:13;;;;;;;1.77;0.80;;;37.50;26.60;;;;;;926657;150;26274;-75
2022/05/13 09:43:42;;;;;;;4.22;1.05;;;37.40;26.70;;;;;;926866;150;26244;-75
2022/05/13 09:46:12;;;;;;;2.42;1.00;;;37.30;26.70;;;;;;925981;150;26329;-75
2022/05/13 09:48:38;;;;;;;2.22;1.10;;;37.10;26.60;;;;;;911494;150;26206;-75
2022/05/13 09:51:17;;;;;;;1.40;0.90;;;37.00;26.60;;;;;;936396;149;26397;-75
2022/05/13 09:53:43;;;;;;;1.65;0.88;;;36.80;26.70;;;;;;939626;149;26748;-75
2022/05/13 09:56:10;;;;;;;1.15;0.78;;;36.70;26.80;;;;;;956087;147;28547;-75
2022/05/13 09:58:37;;;;;;;2.30;0.70;;;36.50;26.80;;;;;;941008;149;26272;-75
2022/05/13 10:01:13;;;;;;;1.92;0.90;;;36.30;26.80;;;;;;960855;147;26308;-75
2022/05/13 10:03:38;;;;;;;1.62;0.78;;;36.20;26.70;;;;;;948266;148;27457;-75
2022/05/13 10:06:05;;;;;;;1.02;0.70;;;35.90;26.50;;;;;;948498;149;27373;-74
2022/05/13 10:08:32;;;;;;;0.90;0.68;;;35.60;26.60;;;;;;948942;148;27409;-75
2022/05/13 10:14:03;;;;;;;1.50;1.00;;;35.10;26.70;;;;;;946418;148;27349;-75
2022/05/13 10:16:39;;;;;;;1.20;0.80;;;34.70;26.80;;;;;;955565;147;27379;-75
2022/05/13 10:19:30;;;;;;;2.67;1.20;;;34.50;26.80;;;;;;948574;148;27288;-75
2022/05/13 10:21:56;;;;;;;2.30;0.90;;;34.10;26.80;;;;;;948999;148;27329;-74
2022/05/13 10:24:35;;;;;;;1.40;1.02;;;33.80;26.80;;;;;;938035;149;27299;-74
2022/05/13 10:27:01;;;;;;;2.30;1.27;;;33.40;27.00;;;;;;938887;149;27231;-75
2022/05/13 10:29:37;;;;;;;1.22;0.98;;;33.20;27.10;;;;;;943693;149;27340;-75
2022/05/13 10:32:06;;;;;;;1.82;1.00;;;32.80;27.00;;;;;;944667;148;27358;-74
2022/05/13 10:34:43;;;;;;;2.02;1.20;;;32.60;27.30;;;;;;944288;149;27378;-74
2022/05/13 10:37:11;;;;;;;4.20;0.80;;;32.30;27.30;;;;;;946038;149;27400;-74
2022/05/13 10:39:59;;;;;;;1.85;1.07;;;32.10;27.60;;;;;;955117;147;27748;-75
2022/05/13 10:42:37;;;;;;;1.60;1.10;;;31.80;27.60;;;;;;956182;147;27374;-74
2022/05/13 10:45:07;;;;;;;1.65;1.00;;;31.50;27.50;;;;;;955879;147;27332;-74
2022/05/13 10:47:33;;;;;;;2.67;0.90;;;31.20;27.60;;;;;;955398;147;27321;-74
2022/05/13 10:50:00;;;;;;;6.42;1.12;;;30.90;27.80;;;;;;943721;149;27229;-74
2022/05/13 10:52:32;;;;;;;2.62;0.90;;;30.70;28.00;;;;;;944400;148;27414;-74
2022/05/13 10:55:14;;;;;;;1.27;0.90;;;30.50;28.20;;;;;;943551;148;27340;-74
2022/05/13 10:57:43;;;;;;;3.70;1.50;;;30.30;28.30;;;;;;943227;148;27487;-74
2022/05/13 11:00:19;;;;;;;1.52;0.70;;;30.10;28.50;;;;;;943322;148;27301;-74
2022/05/13 11:03:16;;;;;;;1.27;0.60;;;29.90;28.60;;;;;;939866;149;27319;-74
2022/05/13 11:05:45;;;;;;;2.55;1.12;;;29.80;28.60;;;;;;941445;149;27391;-74
2022/05/13 11:08:27;;;;;;;1.32;0.85;;;29.60;28.80;;;;;;948438;147;27813;-74
2022/05/13 11:10:53;;;;;;;1.80;1.25;;;29.40;28.90;;;;;;948178;148;27334;-74
2022/05/13 11:13:38;;;;;;;2.52;0.93;;;29.20;29.00;;;;;;939971;149;27323;-74
2022/05/13 11:16:11;;;;;;;0.85;0.80;;;29.00;29.20;;;;;;940003;149;27484;-74
2022/05/13 11:18:49;;;;;;;1.72;1.00;;;28.80;29.30;;;;;;939626;149;27350;-74
2022/05/13 11:21:30;;;;;;;1.42;0.80;;;28.70;29.50;;;;;;932157;150;27438;-74
2022/05/13 11:26:57;;;;;;;1.15;0.88;;;28.40;29.70;;;;;;948448;148;27511;-74
2022/05/13 11:29:38;;;;;;;2.12;1.20;;;28.20;29.90;;;;;;945967;148;27361;-74
2022/05/13 11:32:05;;;;;;;1.98;0.85;;;28.10;30.00;;;;;;946604;148;27459;-74
2022/05/13 11:34:31;;;;;;;1.87;1.00;;;28.00;30.10;;;;;;944474;148;27438;-74
2022/05/13 11:36:58;;;;;;;1.95;1.27;;;27.90;30.60;;;;;;946257;148;27926;-75
2022/05/13 11:39:46;;;;;;;1.80;0.88;;;27.80;30.60;;;;;;948020;148;27359;-74
2022/05/13 11:42:31;;;;;;;2.02;1.20;;;27.70;30.60;;;;;;948470;148;27323;-74
2022/05/13 11:45:09;;;;;;;2.60;1.20;;;27.70;30.40;;;;;;949652;148;27311;-74
2022/05/13 11:47:57;;;;;;;2.33;1.25;;;27.50;30.90;;;;;;948061;148;27338;-74
2022/05/13 11:50:24;;;;;;;1.22;0.85;;;27.50;30.70;;;;;;947108;148;27368;-74
2022/05/13 11:52:50;;;;;;;2.05;1.35;;;27.30;30.70;;;;;;942530;148;27406;-74
2022/05/13 11:55:35;;;;;;;1.67;1.27;;;27.20;30.90;;;;;;942608;149;27393;-74
2022/05/13 11:58:02;;;;;;;2.12;1.00;;;27.10;31.00;;;;;;942465;149;27332;-74
2022/05/13 12:00:31;;;;;;;0.90;0.85;;;27.00;31.30;;;;;;942820;149;27345;-74
2022/05/13 12:03:09;;;;;;;1.62;0.82;;;26.90;31.40;;;;;;942726;149;27382;-74
2022/05/13 12:05:57;;;;;;;2.37;1.35;;;26.80;31.50;;;;;;943596;149;27362;-74
2022/05/13 12:08:33;;;;;;;5.90;1.50;;;26.80;31.90;;;;;;943617;149;27413;-74
2022/05/13 12:11:01;;;;;;;1.05;0.80;;;26.70;31.80;;;;;;942136;149;27424;-74
2022/05/13 12:13:43;;;;;;;3.02;1.27;;;26.70;32.20;;;;;;938367;149;27365;-74
2022/05/13 12:16:28;;;;;;;1.75;1.00;;;26.70;32.20;;;;;;942542;149;27455;-74
2022/05/13 12:19:13;;;;;;;1.72;1.07;;;26.70;32.20;;;;;;943119;149;27371;-74
2022/05/13 12:21:57;;;;;;;2.62;1.10;;;26.60;32.00;;;;;;942893;149;27429;-74
2022/05/13 12:24:25;;;;;;;1.55;1.22;;;26.60;32.10;;;;;;918675;150;27393;-74
2022/05/13 12:26:54;;;;;;;1.52;0.90;;;26.60;32.30;;;;;;942681;149;27342;-74
2022/05/13 12:29:32;;;;;;;1.35;0.90;;;26.60;32.50;;;;;;941720;149;28076;-74
2022/05/13 12:31:58;;;;;;;3.90;1.80;;;26.60;32.40;;;;;;944975;149;27523;-74
2022/05/13 12:40:00;;;;;;;3.95;1.20;;;26.60;32.60;;;;;;942175;149;27354;-74
2022/05/13 12:42:51;;;;;;;3.05;1.32;;;26.70;32.70;;;;;;942168;149;27475;-75
2022/05/13 12:45:39;;;;;;;2.08;0.90;;;26.70;32.90;;;;;;942245;149;27377;-74
2022/05/13 12:48:08;;;;;;;1.52;0.72;;;26.70;32.80;;;;;;943130;149;27375;-74
2022/05/13 12:50:51;;;;;;;2.42;1.10;;;26.70;32.90;;;;;;941640;149;27339;-74
2022/05/13 12:53:29;;;;;;;1.72;0.70;;;26.70;32.80;;;;;;943190;149;27377;-74
2022/05/13 12:56:07;;;;;;;1.92;1.07;;;26.80;32.80;;;;;;943777;149;27425;-74
2022/05/13 12:58:34;;;;;;;1.77;1.10;;;26.70;32.70;;;;;;944172;149;27369;-74
2022/05/13 13:01:01;;;;;;;2.58;0.90;;;26.70;32.80;;;;;;943936;149;27765;-74
2022/05/13 13:03:27;;;;;;;1.65;1.20;;;26.70;32.80;;;;;;943322;149;27847;-74
2022/05/13 13:06:00;;;;;;;1.50;0.93;;;26.70;32.70;;;;;;943640;149;27429;-74
2022/05/13 13:08:26;;;;;;;2.05;1.00;;;26.70;32.90;;;;;;936970;149;27311;-74
2022/05/13 13:10:59;;;;;;;2.80;1.00;;;26.70;32.80;;;;;;942117;149;27321;-74
2022/05/13 13:13:34;;;;;;;1.32;1.00;;;26.60;32.70;;;;;;943364;149;27381;-74
2022/05/13 13:16:00;;;;;;;1.77;0.90;;;26.60;32.90;;;;;;942853;149;27317;-74
2022/05/13 13:18:30;;;;;;;0.93;0.85;;;26.50;33.10;;;;;;943695;149;27274;-74
2022/05/13 13:20:59;;;;;;;1.67;0.85;;;26.50;33.20;;;;;;944789;150;27289;-74
2022/05/13 13:23:28;;;;;;;3.40;1.17;;;26.50;33.30;;;;;;930885;151;27444;-74
2022/05/13 13:25:57;;;;;;;3.20;0.85;;;26.50;33.30;;;;;;928278;152;27351;-74
2022/05/13 13:28:25;;;;;;;1.07;1.00;;;26.60;33.20;;;;;;928732;154;27300;-74